createdAt,value
2022-08-05T00:01:36.204Z,26.68
2022-08-05T00:04:18.176Z,26.49
2022-08-05T00:06:51.721Z,26.38
2022-08-05T00:09:20.337Z,26.37
2022-08-05T00:11:55.364Z,26.36
2022-08-05T00:14:27.490Z,26.39
2022-08-05T00:16:57.937Z,26.40
2022-08-05T00:19:33.789Z,26.49
2022-08-05T00:22:12.123Z,26.38
2022-08-05T00:24:42.407Z,26.35
2022-08-05T00:27:28.552Z,26.38
2022-08-05T00:29:58.862Z,26.34
2022-08-05T00:32:31.332Z,26.18
2022-08-05T00:35:06.664Z,26.07
2022-08-05T00:37:52.860Z,26.00
2022-08-05T00:40:28.437Z,26.03
2022-08-05T00:42:58.327Z,25.99
2022-08-05T00:45:38.675Z,26.05
2022-08-05T00:48:08.219Z,26.05
2022-08-05T00:50:41.879Z,25.87
2022-08-05T00:54:01.027Z,25.73
2022-08-05T00:56:00.523Z,25.55
2022-08-05T00:58:28.753Z,25.50
2022-08-05T01:00:56.980Z,25.52
2022-08-05T01:03:30.857Z,25.58
2022-08-05T01:06:03.946Z,25.63
2022-08-05T01:08:43.026Z,25.81
2022-08-05T01:11:22.191Z,25.57
2022-08-05T01:14:08.463Z,25.47
2022-08-05T01:16:41.716Z,25.47
2022-08-05T01:19:56.343Z,25.50
2022-08-05T01:22:24.338Z,25.50
2022-08-05T01:25:13.663Z,25.47
2022-08-05T01:28:07.428Z,25.39
2022-08-05T01:30:39.616Z,25.36
2022-08-05T01:33:20.552Z,25.36
2022-08-05T01:35:57.465Z,25.34
2022-08-05T01:38:29.418Z,25.36
2022-08-05T01:41:00.063Z,25.38
2022-08-05T01:43:31.714Z,25.45
2022-08-05T01:46:07.283Z,25.43
2022-08-05T01:48:45.616Z,25.40
2022-08-05T01:51:18.500Z,25.37
2022-08-05T01:53:57.078Z,25.42
2022-08-05T01:58:11.158Z,25.49
2022-08-05T01:59:22.097Z,25.50
2022-08-05T02:01:51.525Z,25.45
2022-08-05T02:04:24.256Z,25.24
2022-08-05T02:06:53.796Z,25.16
2022-08-05T02:09:22.040Z,25.11
2022-08-05T02:12:02.837Z,25.10
2022-08-05T02:14:34.934Z,25.18
2022-08-05T02:17:08.230Z,25.26
2022-08-05T02:19:50.089Z,25.33
2022-08-05T02:22:26.721Z,25.32
2022-08-05T02:25:00.059Z,25.28
2022-08-05T02:27:30.242Z,25.29
2022-08-05T02:30:17.998Z,25.37
2022-08-05T02:32:49.322Z,25.36
2022-08-05T02:35:27.648Z,25.39
2022-08-05T02:38:00.101Z,25.38
2022-08-05T02:40:28.396Z,25.32
2022-08-05T02:42:57.397Z,25.29
2022-08-05T02:45:28.763Z,25.30
2022-08-05T02:48:17.390Z,25.28
2022-08-05T02:50:47.438Z,25.30
2022-08-05T02:53:19.136Z,25.25
2022-08-05T02:55:54.885Z,25.16
2022-08-05T02:58:30.004Z,25.05
2022-08-05T03:01:02.852Z,25.09
2022-08-05T03:03:34.226Z,25.05
2022-08-05T03:06:53.819Z,25.10
2022-08-05T03:09:09.022Z,25.08
2022-08-05T03:11:55.239Z,25.01
2022-08-05T03:14:26.822Z,24.83
2022-08-05T03:16:56.301Z,24.65
2022-08-05T03:19:33.883Z,24.49
2022-08-05T03:22:05.083Z,24.43
2022-08-05T03:24:47.001Z,24.33
2022-08-05T03:27:17.452Z,24.36
2022-08-05T03:30:08.777Z,24.41
2022-08-05T03:32:34.778Z,24.51
2022-08-05T03:35:04.613Z,24.57
2022-08-05T03:37:46.325Z,24.58
2022-08-05T03:40:31.303Z,24.58
2022-08-05T03:43:01.470Z,24.64
2022-08-05T03:45:57.129Z,24.65
2022-08-05T03:48:29.166Z,24.59
2022-08-05T03:52:34.691Z,24.64
2022-08-05T03:55:51.173Z,24.55
2022-08-05T03:56:43.279Z,24.47
2022-08-05T03:59:20.372Z,24.43
2022-08-05T04:01:51.717Z,24.45
2022-08-05T04:04:22.576Z,24.39
2022-08-05T04:06:55.135Z,24.40
2022-08-05T04:09:26.319Z,24.32
2022-08-05T04:11:56.823Z,24.21
2022-08-05T04:14:30.102Z,24.03
2022-08-05T04:17:00.523Z,23.99
2022-08-05T04:19:31.158Z,23.98
2022-08-05T04:22:09.576Z,23.99
2022-08-05T04:24:44.025Z,24.02
2022-08-05T04:27:15.625Z,24.07
2022-08-05T04:29:43.958Z,24.16
2022-08-05T04:32:13.645Z,24.20
2022-08-05T04:34:48.519Z,24.21
2022-08-05T04:37:16.668Z,24.22
2022-08-05T04:39:44.830Z,24.30
2022-08-05T04:42:21.295Z,24.35
2022-08-05T04:44:53.497Z,24.26
2022-08-05T04:47:21.717Z,24.18
2022-08-05T04:50:02.895Z,24.19
2022-08-05T04:52:39.331Z,24.17
2022-08-05T04:55:15.048Z,24.07
2022-08-05T04:57:47.771Z,23.98
2022-08-05T05:00:23.278Z,23.95
2022-08-05T05:02:52.309Z,24.01
2022-08-05T05:05:28.714Z,23.99
2022-08-05T05:08:01.445Z,23.91
2022-08-05T05:10:30.385Z,23.90
2022-08-05T05:16:07.254Z,23.77
2022-08-05T05:18:35.133Z,23.70
2022-08-05T05:21:05.593Z,23.69
2022-08-05T05:23:39.452Z,23.69
2022-08-05T05:26:28.071Z,23.75
2022-08-05T05:28:56.097Z,23.82
2022-08-05T05:31:25.083Z,23.82
2022-08-05T05:33:59.157Z,23.88
2022-08-05T05:36:29.714Z,23.91
2022-08-05T05:38:58.170Z,23.86
2022-08-05T05:41:40.343Z,23.84
2022-08-05T05:44:35.590Z,23.90
2022-08-05T05:46:57.969Z,23.93
2022-08-05T05:49:26.190Z,24.03
2022-08-05T05:51:55.462Z,24.15
2022-08-05T05:54:50.289Z,24.17
2022-08-05T05:57:13.805Z,24.31
2022-08-05T05:59:46.812Z,24.44
2022-08-05T06:02:16.719Z,24.51
2022-08-05T06:04:49.140Z,24.55
2022-08-05T06:07:22.533Z,24.67
2022-08-05T06:10:10.336Z,24.73
2022-08-05T06:12:42.081Z,24.74
2022-08-05T06:15:23.665Z,24.82
2022-08-05T06:17:52.679Z,24.91
2022-08-05T06:20:21.914Z,24.92
2022-08-05T06:22:51.267Z,25.01
2022-08-05T06:25:25.028Z,25.04
2022-08-05T06:28:11.225Z,25.16
2022-08-05T06:30:49.151Z,25.24
2022-08-05T06:33:19.190Z,25.27
2022-08-05T06:36:03.731Z,25.28
2022-08-05T06:38:37.152Z,25.33
2022-08-05T06:41:07.883Z,25.44
2022-08-05T06:43:58.622Z,25.49
2022-08-05T06:46:30.045Z,25.60
2022-08-05T06:48:58.746Z,25.72
2022-08-05T06:51:30.255Z,25.70
2022-08-05T06:54:01.837Z,25.81
2022-08-05T06:56:30.139Z,25.88
2022-08-05T06:59:01.700Z,25.94
2022-08-05T07:01:32.671Z,26.05
2022-08-05T07:04:01.416Z,26.09
2022-08-05T07:06:30.320Z,26.16
2022-08-05T07:09:04.199Z,26.32
2022-08-05T07:11:33.086Z,26.46
2022-08-05T07:14:28.972Z,26.57
2022-08-05T07:18:01.837Z,26.69
2022-08-05T07:22:41.995Z,26.82
2022-08-05T07:25:23.585Z,26.82
2022-08-05T07:28:05.750Z,26.99
2022-08-05T07:30:39.159Z,27.09
2022-08-05T07:33:10.396Z,27.22
2022-08-05T07:36:04.657Z,27.31
2022-08-05T07:38:34.399Z,27.44
2022-08-05T07:42:07.128Z,27.49
2022-08-05T07:43:56.083Z,27.48
2022-08-05T07:46:26.197Z,27.59
2022-08-05T07:49:03.874Z,27.65
2022-08-05T07:51:41.130Z,27.78
2022-08-05T07:54:18.844Z,27.78
2022-08-05T07:57:02.057Z,27.95
2022-08-05T07:59:39.990Z,28.03
2022-08-05T08:02:10.662Z,28.07
2022-08-05T08:04:49.462Z,28.09
2022-08-05T08:07:18.390Z,28.10
2022-08-05T08:09:52.560Z,28.16
2022-08-05T08:12:37.518Z,28.22
2022-08-05T08:15:15.341Z,28.32
2022-08-05T08:17:49.654Z,28.41
2022-08-05T08:20:59.819Z,28.45
2022-08-05T08:23:11.825Z,28.57
2022-08-05T08:25:59.897Z,28.69
2022-08-05T08:28:37.321Z,28.65
2022-08-05T08:31:19.373Z,28.66
2022-08-05T08:33:51.601Z,28.75
2022-08-05T08:36:39.240Z,28.88
2022-08-05T08:39:15.013Z,28.95
2022-08-05T08:41:50.837Z,29.07
2022-08-05T08:45:20.946Z,29.13
2022-08-05T08:47:47.081Z,29.26
2022-08-05T08:50:31.930Z,29.47
2022-08-05T08:53:00.626Z,29.50
2022-08-05T08:56:02.444Z,29.42
2022-08-05T08:58:17.832Z,29.48
2022-08-05T09:00:55.505Z,29.42
2022-08-05T09:03:23.540Z,29.60
2022-08-05T09:06:08.935Z,29.66
2022-08-05T09:08:40.591Z,29.65
2022-08-05T09:11:12.087Z,29.73
2022-08-05T09:14:00.846Z,29.82
2022-08-05T09:16:32.224Z,30.05
2022-08-05T09:19:00.092Z,30.34
2022-08-05T09:22:22.475Z,30.35
2022-08-05T09:24:17.421Z,30.51
2022-08-05T09:26:48.633Z,30.73
2022-08-05T09:29:19.933Z,30.95
2022-08-05T09:34:50.968Z,31.08
2022-08-05T09:38:12.310Z,31.20
2022-08-05T09:40:08.871Z,31.24
2022-08-05T09:42:48.285Z,31.25
2022-08-05T09:45:17.376Z,31.01
2022-08-05T09:47:55.598Z,30.99
2022-08-05T09:50:38.830Z,30.99
2022-08-05T09:53:22.902Z,31.10
2022-08-05T09:56:03.929Z,31.20
2022-08-05T09:58:32.893Z,31.34
2022-08-05T10:01:02.294Z,31.54
2022-08-05T10:03:59.078Z,31.67
2022-08-05T10:06:29.054Z,31.83
2022-08-05T10:09:27.568Z,32.05
2022-08-05T10:11:56.406Z,32.29
2022-08-05T10:14:28.426Z,32.41
2022-08-05T10:17:14.115Z,32.30
2022-08-05T10:20:04.058Z,32.21
2022-08-05T10:22:48.659Z,32.38
2022-08-05T10:25:18.901Z,32.31
2022-08-05T10:28:16.789Z,32.41
2022-08-05T10:31:20.376Z,32.44
2022-08-05T10:33:29.033Z,32.47
2022-08-05T10:35:59.847Z,32.52
2022-08-05T10:38:33.295Z,32.63
2022-08-05T10:41:07.545Z,32.62
2022-08-05T10:43:43.902Z,32.74
2022-08-05T10:46:13.436Z,32.72
2022-08-05T10:48:57.055Z,32.74
2022-08-05T10:51:29.035Z,32.97
2022-08-05T10:54:01.774Z,33.04
2022-08-05T10:56:45.868Z,33.04
2022-08-05T11:00:04.080Z,33.23
2022-08-05T11:02:14.244Z,33.07
2022-08-05T11:04:58.914Z,32.89
2022-08-05T11:07:33.003Z,32.73
2022-08-05T11:10:27.772Z,32.84
2022-08-05T11:12:57.558Z,33.08
2022-08-05T11:16:00.303Z,33.35
2022-08-05T11:18:29.725Z,33.62
2022-08-05T11:20:59.083Z,33.66
2022-08-05T11:24:03.847Z,33.70
2022-08-05T11:26:32.948Z,33.76
2022-08-05T11:29:11.761Z,33.95
2022-08-05T11:31:57.836Z,33.87
2022-08-05T11:34:51.421Z,33.60
2022-08-05T11:38:28.946Z,33.39
2022-08-05T11:41:13.904Z,33.29
2022-08-05T11:44:05.215Z,33.18
2022-08-05T11:46:36.355Z,33.27
2022-08-05T11:49:07.997Z,33.33
2022-08-05T11:51:44.224Z,33.54
2022-08-05T11:54:34.007Z,33.72
2022-08-05T11:57:07.596Z,33.86
2022-08-05T11:59:53.283Z,34.13
2022-08-05T12:02:31.926Z,34.13
2022-08-05T12:05:07.728Z,34.12
2022-08-05T12:08:03.304Z,34.04
2022-08-05T12:10:38.672Z,33.97
2022-08-05T12:13:13.954Z,34.08
2022-08-05T12:15:49.854Z,33.90
2022-08-05T12:18:24.296Z,33.96
2022-08-05T12:20:52.578Z,33.95
2022-08-05T12:23:20.395Z,33.97
2022-08-05T12:25:56.599Z,34.04
2022-08-05T12:28:32.399Z,34.30
2022-08-05T12:31:02.049Z,34.59
2022-08-05T12:33:37.080Z,34.78
2022-08-05T12:36:08.972Z,35.03
2022-08-05T12:38:38.097Z,35.18
2022-08-05T12:41:13.322Z,35.25
2022-08-05T12:43:53.660Z,35.04
2022-08-05T12:46:28.831Z,34.87
2022-08-05T12:48:58.958Z,34.63
2022-08-05T12:52:12.789Z,34.65
2022-08-05T12:54:23.380Z,34.54
2022-08-05T12:56:53.451Z,34.60
2022-08-05T12:59:46.769Z,34.76
2022-08-05T13:02:13.021Z,34.73
2022-08-05T13:04:52.585Z,34.73
2022-08-05T13:07:56.121Z,34.88
2022-08-05T13:10:13.005Z,35.05
2022-08-05T13:12:42.702Z,35.29
2022-08-05T13:15:24.426Z,35.32
2022-08-05T13:18:05.424Z,35.21
2022-08-05T13:20:40.318Z,35.03
2022-08-05T13:23:08.541Z,35.02
2022-08-05T13:25:52.327Z,34.83
2022-08-05T13:28:24.229Z,34.70
2022-08-05T13:30:53.325Z,34.44
2022-08-05T13:34:24.571Z,34.22
2022-08-05T13:36:12.938Z,33.95
2022-08-05T13:38:43.172Z,33.78
2022-08-05T13:41:13.620Z,33.58
2022-08-05T13:43:54.926Z,33.46
2022-08-05T13:49:14.099Z,33.37
2022-08-05T13:51:46.629Z,33.22
2022-08-05T13:54:16.103Z,33.06
2022-08-05T13:56:51.656Z,33.13
2022-08-05T13:59:24.429Z,33.23
2022-08-05T14:01:57.573Z,33.42
2022-08-05T14:04:49.490Z,33.60
2022-08-05T14:07:25.689Z,33.83
2022-08-05T14:10:08.368Z,33.83
2022-08-05T14:12:36.934Z,33.72
2022-08-05T14:15:05.998Z,33.90
2022-08-05T14:17:54.970Z,33.86
2022-08-05T14:20:27.631Z,33.87
2022-08-05T14:22:55.946Z,33.66
2022-08-05T14:25:28.211Z,33.53
2022-08-05T14:27:56.503Z,33.31
2022-08-05T14:30:27.809Z,33.15
2022-08-05T14:32:56.875Z,33.04
2022-08-05T14:35:50.145Z,32.91
2022-08-05T14:38:31.935Z,32.75
2022-08-05T14:41:01.556Z,32.58
2022-08-05T14:44:01.473Z,32.55
2022-08-05T14:46:21.672Z,32.31
2022-08-05T14:48:50.249Z,32.18
2022-08-05T14:51:19.663Z,32.02
2022-08-05T14:54:26.768Z,31.84
2022-08-05T14:56:38.176Z,31.63
2022-08-05T14:59:12.676Z,31.36
2022-08-05T15:01:47.609Z,30.97
2022-08-05T15:04:17.296Z,30.72
2022-08-05T15:06:49.106Z,30.64
2022-08-05T15:09:51.198Z,30.44
2022-08-05T15:12:06.941Z,30.32
2022-08-05T15:14:48.157Z,30.34
2022-08-05T15:17:44.503Z,30.32
2022-08-05T15:20:09.779Z,30.26
2022-08-05T15:22:46.504Z,30.07
2022-08-05T15:25:41.285Z,29.97
2022-08-05T15:28:13.223Z,29.82
2022-08-05T15:30:43.255Z,29.74
2022-08-05T15:33:11.826Z,29.72
2022-08-05T15:35:45.526Z,29.72
2022-08-05T15:38:34.062Z,29.69
2022-08-05T15:41:22.412Z,29.70
2022-08-05T15:43:52.473Z,29.59
2022-08-05T15:46:25.034Z,28.89
2022-08-05T15:48:58.614Z,28.52
2022-08-05T15:52:03.983Z,28.31
2022-08-05T15:54:19.010Z,28.29
2022-08-05T15:56:47.024Z,28.20
2022-08-05T15:59:21.885Z,28.16
2022-08-05T16:01:52.609Z,28.14
2022-08-05T16:04:20.959Z,28.14
2022-08-05T16:06:53.899Z,28.14
2022-08-05T16:09:25.694Z,28.07
2022-08-05T16:11:54.176Z,28.04
2022-08-05T16:14:22.544Z,28.00
2022-08-05T16:16:51.269Z,28.00
2022-08-05T16:20:03.621Z,28.01
2022-08-05T16:22:10.605Z,28.02
2022-08-05T16:24:51.030Z,28.08
2022-08-05T16:27:47.312Z,28.13
2022-08-05T16:30:23.271Z,28.13
2022-08-05T16:32:53.897Z,28.12
2022-08-05T16:35:28.286Z,28.13
2022-08-05T16:38:14.955Z,28.11
2022-08-05T16:40:55.474Z,28.11
2022-08-05T16:43:28.671Z,28.10
2022-08-05T16:46:04.153Z,28.08
2022-08-05T16:48:40.529Z,28.10
2022-08-05T16:51:09.966Z,28.01
2022-08-05T16:54:03.262Z,27.94
2022-08-05T16:56:33.839Z,27.96
2022-08-05T16:59:08.003Z,27.93
2022-08-05T17:01:54.541Z,27.93
2022-08-05T17:04:27.804Z,27.92
2022-08-05T17:07:00.346Z,27.90
2022-08-05T17:09:29.606Z,27.90
2022-08-05T17:12:01.413Z,27.88
2022-08-05T17:14:37.022Z,27.84
2022-08-05T17:17:14.574Z,27.78
2022-08-05T17:19:45.639Z,27.60
2022-08-05T17:22:24.892Z,27.51
2022-08-05T17:24:57.781Z,27.41
2022-08-05T17:27:33.664Z,27.32
2022-08-05T17:30:03.221Z,27.28
2022-08-05T17:32:32.158Z,27.23
2022-08-05T17:35:01.768Z,27.22
2022-08-05T17:37:41.844Z,27.11
2022-08-05T17:40:15.427Z,27.07
2022-08-05T17:42:51.311Z,27.06
2022-08-05T17:45:23.058Z,26.97
2022-08-05T17:47:54.841Z,26.98
2022-08-05T17:50:28.694Z,26.92
2022-08-05T17:52:59.421Z,26.87
2022-08-05T17:55:37.317Z,26.84
2022-08-05T17:58:12.427Z,26.80
2022-08-05T18:00:44.997Z,26.76
2022-08-05T18:03:39.211Z,26.73
2022-08-05T18:06:12.332Z,26.69
2022-08-05T18:08:44.518Z,26.65
2022-08-05T18:11:24.165Z,26.63
2022-08-05T18:14:04.352Z,26.60
2022-08-05T18:16:35.088Z,26.58
2022-08-05T18:19:22.823Z,26.57
2022-08-05T18:22:08.265Z,26.53
2022-08-05T18:24:39.491Z,26.51
2022-08-05T18:27:12.381Z,26.47
2022-08-05T18:29:53.620Z,26.45
2022-08-05T18:32:27.815Z,26.43
2022-08-05T18:34:57.703Z,26.41
2022-08-05T18:37:34.038Z,26.34
2022-08-05T18:40:34.302Z,26.33
2022-08-05T18:42:56.748Z,26.28
2022-08-05T18:45:41.875Z,26.31
2022-08-05T18:48:11.505Z,26.29
2022-08-05T18:50:57.278Z,26.23
2022-08-05T18:53:34.743Z,26.10
2022-08-05T18:56:12.451Z,26.10
2022-08-05T18:58:42.954Z,26.08
2022-08-05T19:01:18.045Z,26.03
2022-08-05T19:03:55.190Z,25.99
2022-08-05T19:06:34.223Z,25.92
2022-08-05T19:09:05.299Z,25.84
2022-08-05T19:11:59.280Z,25.63
2022-08-05T19:14:53.465Z,25.53
2022-08-05T19:17:12.879Z,25.37
2022-08-05T19:19:44.066Z,25.21
2022-08-05T19:22:17.373Z,25.14
2022-08-05T19:24:55.926Z,25.04
2022-08-05T19:27:30.300Z,25.01
2022-08-05T19:29:58.501Z,24.97
2022-08-05T19:32:28.140Z,24.84
2022-08-05T19:34:56.805Z,24.84
2022-08-05T19:37:29.913Z,24.77
2022-08-05T19:40:14.872Z,24.75
2022-08-05T19:42:43.013Z,24.70
2022-08-05T19:45:33.133Z,24.65
2022-08-05T19:48:06.682Z,24.63
2022-08-05T19:50:35.037Z,24.58
2022-08-05T19:53:10.656Z,24.54
2022-08-05T19:56:29.878Z,24.53
2022-08-05T21:37:13.061Z,22.05
2022-08-05T21:39:50.742Z,21.92
2022-08-05T21:42:41.450Z,21.83
2022-08-05T21:46:01.648Z,21.83
2022-08-05T21:48:09.818Z,21.83
2022-08-05T21:53:47.108Z,22.11
2022-08-05T21:57:32.582Z,22.04
2022-08-05T22:00:29.004Z,21.98
2022-08-05T22:03:20.653Z,21.97
2022-08-05T22:06:12.063Z,21.86
2022-08-05T22:09:14.035Z,21.87
2022-08-05T22:11:53.693Z,21.93
2022-08-05T22:24:01.694Z,21.98
2022-08-05T22:26:40.724Z,21.90
2022-08-05T22:29:08.871Z,22.02
2022-08-05T22:31:44.821Z,21.91
2022-08-05T22:34:25.522Z,21.93
2022-08-05T22:36:58.494Z,21.93
2022-08-05T22:39:32.735Z,21.94
2022-08-05T22:42:11.016Z,21.75
2022-08-05T22:44:42.665Z,21.68
2022-08-05T22:47:29.061Z,21.66
2022-08-05T22:50:19.302Z,21.82
2022-08-05T22:52:47.697Z,21.68
2022-08-05T22:55:19.590Z,21.76
2022-08-05T22:57:51.348Z,21.67
2022-08-05T23:00:21.585Z,21.62
2022-08-05T23:02:50.298Z,21.52
2022-08-05T23:05:22.214Z,21.47
2022-08-05T23:07:50.914Z,21.41
2022-08-05T23:10:20.885Z,21.44
2022-08-05T23:12:55.702Z,21.52
2022-08-05T23:15:27.071Z,21.59
2022-08-05T23:18:00.737Z,21.54
2022-08-05T23:20:30.956Z,21.53
2022-08-05T23:22:59.245Z,21.52
2022-08-05T23:25:52.524Z,21.44
2022-08-05T23:28:17.282Z,21.27
2022-08-05T23:30:53.124Z,21.20
2022-08-05T23:33:26.283Z,21.14
2022-08-05T23:36:10.534Z,21.24
2022-08-05T23:38:38.916Z,21.26
2022-08-05T23:41:07.134Z,21.36
2022-08-05T23:44:05.086Z,21.42
2022-08-05T23:46:27.324Z,21.48
2022-08-05T23:49:01.947Z,21.54
2022-08-05T23:52:01.612Z,21.67
2022-08-05T23:54:33.749Z,21.73
2022-08-05T23:57:05.238Z,21.82
